createdAt,value
2019-04-25T00:00:38.092Z,14.16
2019-04-25T00:01:43.942Z,14.18
2019-04-25T00:02:48.352Z,14.17
2019-04-25T00:03:53.366Z,14.16
2019-04-25T00:04:57.223Z,14.16
2019-04-25T00:06:02.265Z,14.12
2019-04-25T00:07:06.418Z,14.06
2019-04-25T00:08:11.471Z,13.96
2019-04-25T00:09:16.994Z,13.86
2019-04-25T00:10:22.043Z,13.87
2019-04-25T00:11:25.863Z,13.84
2019-04-25T00:12:29.712Z,13.78
2019-04-25T00:13:33.344Z,13.81
2019-04-25T00:14:37.995Z,13.77
2019-04-25T00:15:44.465Z,13.71
2019-04-25T00:16:47.495Z,13.80
2019-04-25T00:17:52.190Z,13.86
2019-04-25T00:18:55.984Z,13.79
2019-04-25T00:20:01.474Z,13.69
2019-04-25T00:21:22.027Z,13.67
2019-04-25T00:22:31.658Z,13.71
2019-04-25T00:23:36.371Z,13.63
2019-04-25T00:24:43.281Z,13.66
2019-04-25T00:25:52.705Z,13.67
2019-04-25T00:26:56.510Z,13.72
2019-04-25T00:28:01.714Z,13.77
2019-04-25T00:29:05.571Z,13.69
2019-04-25T00:30:09.407Z,13.62
2019-04-25T00:31:13.837Z,13.56
2019-04-25T00:32:17.471Z,13.51
2019-04-25T00:33:21.645Z,13.58
2019-04-25T00:34:25.254Z,13.58
2019-04-25T00:35:28.922Z,13.63
2019-04-25T00:36:32.554Z,13.61
2019-04-25T00:37:36.137Z,13.63
2019-04-25T00:38:39.795Z,13.75
2019-04-25T00:39:45.141Z,13.74
2019-04-25T00:40:50.587Z,13.69
2019-04-25T00:41:54.901Z,13.68
2019-04-25T00:42:58.552Z,13.65
2019-04-25T00:44:02.445Z,13.55
2019-04-25T00:45:07.516Z,13.61
2019-04-25T00:46:11.455Z,13.61
2019-04-25T00:47:15.225Z,13.66
2019-04-25T00:48:18.894Z,13.69
2019-04-25T00:49:23.642Z,13.66
2019-04-25T00:50:27.389Z,13.64
2019-04-25T00:51:31.762Z,13.63
2019-04-25T00:52:35.603Z,13.65
2019-04-25T00:53:39.236Z,13.62
2019-04-25T00:54:43.161Z,13.60
2019-04-25T00:55:46.876Z,13.44
2019-04-25T00:56:52.401Z,13.46
2019-04-25T00:57:57.589Z,13.41
2019-04-25T00:59:11.823Z,13.35
2019-04-25T01:00:24.629Z,13.22
2019-04-25T01:01:46.866Z,13.06
2019-04-25T01:02:54.542Z,13.13
2019-04-25T01:03:58.176Z,13.22
2019-04-25T01:05:02.106Z,13.22
2019-04-25T01:06:05.748Z,13.24
2019-04-25T01:07:09.433Z,13.33
2019-04-25T01:08:13.092Z,13.30
2019-04-25T01:09:18.359Z,13.28
2019-04-25T01:10:23.109Z,13.29
2019-04-25T01:11:26.899Z,13.30
2019-04-25T01:12:31.389Z,13.31
2019-04-25T01:13:35.540Z,13.31
2019-04-25T01:14:39.199Z,13.31
2019-04-25T01:15:42.835Z,13.35
2019-04-25T01:16:46.540Z,13.34
2019-04-25T01:17:51.513Z,13.29
2019-04-25T01:18:55.657Z,13.19
2019-04-25T01:19:59.250Z,13.13
2019-04-25T01:21:04.389Z,13.16
2019-04-25T01:22:08.235Z,13.16
2019-04-25T01:23:11.904Z,13.16
2019-04-25T01:24:15.927Z,13.21
2019-04-25T01:25:19.562Z,13.23
2019-04-25T01:26:23.961Z,13.25
2019-04-25T01:27:27.771Z,13.23
2019-04-25T01:28:31.457Z,13.30
2019-04-25T01:29:35.184Z,13.30
2019-04-25T01:30:39.491Z,13.26
2019-04-25T01:31:43.501Z,13.07
2019-04-25T01:32:47.285Z,13.07
2019-04-25T01:33:50.956Z,13.10
2019-04-25T01:35:03.861Z,13.13
2019-04-25T01:36:13.320Z,13.13
2019-04-25T01:37:25.843Z,13.14
2019-04-25T01:38:39.918Z,13.08
2019-04-25T01:39:57.539Z,13.06
2019-04-25T01:41:03.355Z,13.06
2019-04-25T01:42:25.293Z,13.08
2019-04-25T01:43:48.435Z,13.06
2019-04-25T01:44:54.222Z,13.03
2019-04-25T01:45:58.479Z,13.00
2019-04-25T01:47:04.099Z,12.92
2019-04-25T01:48:08.036Z,12.95
2019-04-25T01:49:11.669Z,12.92
2019-04-25T01:50:15.314Z,12.91
2019-04-25T01:51:19.058Z,12.92
2019-04-25T01:52:23.523Z,12.95
2019-04-25T01:53:27.323Z,12.95
2019-04-25T01:54:30.952Z,12.93
2019-04-25T01:55:34.702Z,12.98
2019-04-25T01:56:38.403Z,12.96
2019-04-25T01:57:45.064Z,12.91
2019-04-25T01:58:47.379Z,12.89
2019-04-25T01:59:51.377Z,12.86
2019-04-25T02:00:56.380Z,12.86
2019-04-25T02:02:00.528Z,12.79
2019-04-25T02:03:04.648Z,12.69
2019-04-25T02:04:08.452Z,12.69
2019-04-25T02:05:13.894Z,12.72
2019-04-25T02:06:17.598Z,12.73
2019-04-25T02:07:21.200Z,12.75
2019-04-25T02:08:24.853Z,12.75
2019-04-25T02:09:28.481Z,12.77
2019-04-25T02:10:32.135Z,12.77
2019-04-25T02:11:37.432Z,12.73
2019-04-25T02:12:48.479Z,12.60
2019-04-25T02:13:54.558Z,12.58
2019-04-25T02:14:57.933Z,12.51
2019-04-25T02:16:01.941Z,12.51
2019-04-25T02:17:05.596Z,12.52
2019-04-25T02:18:09.657Z,12.56
2019-04-25T02:19:14.542Z,12.52
2019-04-25T02:20:18.304Z,12.60
2019-04-25T02:21:23.491Z,12.61
2019-04-25T02:22:27.250Z,12.61
2019-04-25T02:23:30.916Z,12.59
2019-04-25T02:24:34.581Z,12.59
2019-04-25T02:25:38.223Z,12.56
2019-04-25T02:26:41.856Z,12.52
2019-04-25T02:27:45.493Z,12.48
2019-04-25T02:28:49.568Z,12.48
2019-04-25T02:29:55.184Z,12.45
2019-04-25T02:31:00.790Z,12.45
2019-04-25T02:32:08.861Z,12.47
2019-04-25T02:33:09.997Z,12.48
2019-04-25T02:34:17.779Z,12.48
2019-04-25T02:35:18.970Z,12.43
2019-04-25T02:36:24.703Z,12.48
2019-04-25T02:37:27.983Z,12.46
2019-04-25T02:38:33.986Z,12.40
2019-04-25T02:39:37.716Z,12.40
2019-04-25T02:40:41.360Z,12.38
2019-04-25T02:41:45.022Z,12.38
2019-04-25T02:42:48.656Z,12.39
2019-04-25T02:43:56.331Z,12.39
2019-04-25T02:45:02.166Z,12.37
2019-04-25T02:46:15.198Z,12.36
2019-04-25T02:47:26.514Z,12.34
2019-04-25T02:48:34.545Z,12.36
2019-04-25T02:49:40.036Z,12.33
2019-04-25T02:50:58.641Z,12.22
2019-04-25T02:52:08.451Z,12.20
2019-04-25T02:53:28.443Z,12.12
2019-04-25T02:54:32.102Z,11.99
2019-04-25T02:55:37.605Z,12.00
2019-04-25T02:56:41.621Z,12.03
2019-04-25T02:57:45.252Z,12.02
2019-04-25T02:58:49.656Z,11.96
2019-04-25T02:59:54.706Z,11.94
2019-04-25T03:01:08.102Z,12.00
2019-04-25T03:02:07.116Z,12.00
2019-04-25T03:03:10.703Z,11.97
2019-04-25T03:04:14.641Z,11.92
2019-04-25T03:05:18.379Z,11.89
2019-04-25T03:06:22.042Z,11.93
2019-04-25T03:07:25.677Z,11.97
2019-04-25T03:08:29.315Z,11.89
2019-04-25T03:09:35.195Z,11.87
2019-04-25T03:10:38.356Z,11.83
2019-04-25T03:11:41.989Z,11.80
2019-04-25T03:12:46.067Z,11.79
2019-04-25T03:13:49.722Z,11.76
2019-04-25T03:14:54.944Z,11.76
2019-04-25T03:16:00.434Z,11.77
2019-04-25T03:17:05.213Z,11.77
2019-04-25T03:18:12.439Z,11.77
2019-04-25T03:19:34.053Z,11.72
2019-04-25T03:20:47.650Z,11.71
2019-04-25T03:22:00.126Z,11.66
2019-04-25T03:23:09.501Z,11.61
2019-04-25T03:24:16.818Z,11.59
2019-04-25T03:25:19.630Z,11.58
2019-04-25T03:26:23.421Z,11.58
2019-04-25T03:27:27.095Z,11.53
2019-04-25T03:28:31.530Z,11.49
2019-04-25T03:29:35.215Z,11.47
2019-04-25T03:30:38.923Z,11.35
2019-04-25T03:31:45.033Z,11.38
2019-04-25T03:32:51.382Z,11.43
2019-04-25T03:33:55.793Z,11.47
2019-04-25T03:34:59.073Z,11.49
2019-04-25T03:36:03.550Z,11.47
2019-04-25T03:37:08.082Z,11.49
2019-04-25T03:38:11.710Z,11.45
2019-04-25T03:39:16.552Z,11.48
2019-04-25T03:40:20.348Z,11.48
2019-04-25T03:41:24.561Z,11.50
2019-04-25T03:42:28.293Z,11.49
2019-04-25T03:43:33.235Z,11.44
2019-04-25T03:44:37.260Z,11.42
2019-04-25T03:45:40.962Z,11.46
2019-04-25T03:46:45.004Z,11.47
2019-04-25T03:47:48.566Z,11.38
2019-04-25T03:48:53.766Z,11.38
2019-04-25T03:49:57.640Z,11.42
2019-04-25T03:51:02.266Z,11.41
2019-04-25T03:52:06.539Z,11.42
2019-04-25T03:53:10.518Z,11.37
2019-04-25T03:54:14.392Z,11.30
2019-04-25T03:55:18.079Z,11.29
2019-04-25T03:56:21.747Z,11.36
2019-04-25T03:57:25.829Z,11.34
2019-04-25T03:58:29.835Z,11.35
2019-04-25T03:59:33.655Z,11.33
2019-04-25T04:00:37.352Z,11.31
2019-04-25T04:01:41.021Z,11.27
2019-04-25T04:02:44.670Z,11.26
2019-04-25T04:03:48.328Z,11.28
2019-04-25T04:04:53.619Z,11.33
2019-04-25T04:05:57.457Z,11.38
2019-04-25T04:07:01.147Z,11.42
2019-04-25T04:08:06.223Z,11.39
2019-04-25T04:09:10.137Z,11.47
2019-04-25T04:10:15.411Z,11.55
2019-04-25T04:11:19.132Z,11.60
2019-04-25T04:12:24.286Z,11.64
2019-04-25T04:13:28.027Z,11.68
2019-04-25T04:14:33.725Z,11.73
2019-04-25T04:15:37.543Z,11.77
2019-04-25T04:16:44.344Z,11.78
2019-04-25T04:18:01.804Z,11.81
2019-04-25T04:19:06.948Z,11.87
2019-04-25T04:20:13.869Z,11.94
2019-04-25T04:21:23.087Z,11.97
2019-04-25T04:22:34.789Z,12.02
2019-04-25T04:23:40.097Z,12.06
2019-04-25T04:24:45.423Z,12.08
2019-04-25T04:25:49.101Z,12.07
2019-04-25T04:27:10.624Z,11.94
2019-04-25T04:28:14.955Z,11.81
2019-04-25T04:29:18.704Z,11.72
2019-04-25T04:30:24.041Z,11.81
2019-04-25T04:31:27.778Z,11.93
2019-04-25T04:32:31.425Z,11.93
2019-04-25T04:33:35.015Z,11.94
2019-04-25T04:34:38.681Z,11.94
2019-04-25T04:35:43.896Z,11.92
2019-04-25T04:36:47.868Z,11.96
2019-04-25T04:37:51.504Z,12.04
2019-04-25T04:38:55.169Z,12.10
2019-04-25T04:39:58.813Z,12.11
2019-04-25T04:41:03.932Z,12.02
2019-04-25T04:42:08.363Z,12.01
2019-04-25T04:43:12.029Z,12.01
2019-04-25T04:44:16.492Z,12.03
2019-04-25T04:45:20.343Z,12.07
2019-04-25T04:46:24.175Z,12.13
2019-04-25T04:47:27.888Z,12.17
2019-04-25T04:48:31.872Z,12.17
2019-04-25T04:49:35.866Z,12.17
2019-04-25T04:50:39.551Z,12.19
2019-04-25T04:51:44.389Z,12.15
2019-04-25T04:52:48.193Z,12.11
2019-04-25T04:53:53.577Z,12.08
2019-04-25T04:55:06.410Z,12.08
2019-04-25T04:56:04.255Z,12.09
2019-04-25T04:57:18.422Z,12.11
2019-04-25T04:58:15.012Z,12.14
2019-04-25T04:59:19.079Z,12.18
2019-04-25T05:00:24.649Z,12.14
2019-04-25T05:01:29.992Z,12.11
2019-04-25T05:02:37.995Z,12.13
2019-04-25T05:03:59.434Z,12.20
2019-04-25T05:05:19.794Z,12.23
2019-04-25T05:06:27.774Z,12.21
2019-04-25T05:07:39.141Z,12.19
2019-04-25T05:08:44.417Z,12.19
2019-04-25T05:09:48.294Z,12.19
2019-04-25T05:10:51.965Z,12.20
2019-04-25T05:11:55.616Z,12.22
2019-04-25T05:12:59.258Z,12.25
2019-04-25T05:14:04.021Z,12.30
2019-04-25T05:15:12.603Z,12.30
2019-04-25T05:16:17.712Z,12.34
2019-04-25T05:17:21.863Z,12.38
2019-04-25T05:18:37.547Z,12.43
2019-04-25T05:19:31.405Z,12.45
2019-04-25T05:20:35.633Z,12.46
2019-04-25T05:21:39.378Z,12.50
2019-04-25T05:22:44.541Z,12.57
2019-04-25T05:23:48.317Z,12.47
2019-04-25T05:24:53.537Z,12.60
2019-04-25T05:25:57.361Z,12.60
2019-04-25T05:27:00.990Z,12.57
2019-04-25T05:28:05.395Z,12.57
2019-04-25T05:29:09.029Z,12.59
2019-04-25T05:30:15.671Z,12.53
2019-04-25T05:31:21.398Z,12.54
2019-04-25T05:32:25.242Z,12.56
2019-04-25T05:33:29.033Z,12.63
2019-04-25T05:34:34.224Z,12.54
2019-04-25T05:35:38.150Z,12.59
2019-04-25T05:36:41.813Z,12.73
2019-04-25T05:37:45.827Z,12.85
2019-04-25T05:38:49.487Z,12.98
2019-04-25T05:39:53.631Z,12.98
2019-04-25T05:40:58.900Z,13.03
2019-04-25T05:42:05.196Z,13.19
2019-04-25T05:43:11.233Z,13.19
2019-04-25T05:44:15.787Z,13.24
2019-04-25T05:45:23.553Z,13.28
2019-04-25T05:46:27.747Z,13.36
2019-04-25T05:47:31.382Z,13.42
2019-04-25T05:48:35.050Z,13.44
2019-04-25T05:49:38.678Z,13.45
2019-04-25T05:50:43.694Z,13.45
2019-04-25T05:51:47.486Z,13.49
2019-04-25T05:52:51.121Z,13.55
2019-04-25T05:53:55.231Z,13.50
2019-04-25T05:54:58.893Z,13.50
2019-04-25T05:56:04.128Z,13.60
2019-04-25T05:57:07.912Z,13.60
2019-04-25T05:58:11.576Z,13.63
2019-04-25T05:59:15.218Z,13.68
2019-04-25T06:00:19.376Z,13.79
2019-04-25T06:01:24.626Z,13.82
2019-04-25T06:02:28.400Z,14.08
2019-04-25T06:03:31.992Z,14.09
2019-04-25T06:04:37.201Z,14.09
2019-04-25T06:05:40.859Z,14.24
2019-04-25T06:06:44.675Z,14.33
2019-04-25T06:07:48.375Z,14.39
2019-04-25T06:08:56.087Z,14.46
2019-04-25T06:10:19.747Z,14.47
2019-04-25T06:11:28.110Z,14.48
2019-04-25T06:12:33.610Z,14.57
2019-04-25T06:13:43.276Z,14.62
2019-04-25T06:14:46.789Z,14.70
2019-04-25T06:15:53.333Z,14.78
2019-04-25T06:16:58.678Z,14.84
2019-04-25T06:18:04.117Z,14.92
2019-04-25T06:19:18.024Z,14.99
2019-04-25T06:20:25.790Z,14.95
2019-04-25T06:21:29.397Z,14.94
2019-04-25T06:22:47.046Z,14.90
2019-04-25T06:24:08.801Z,15.14
2019-04-25T06:25:16.224Z,15.16
2019-04-25T06:26:33.114Z,15.23
2019-04-25T06:27:27.027Z,15.07
2019-04-25T06:28:34.551Z,14.94
2019-04-25T06:29:37.450Z,15.10
2019-04-25T06:30:41.155Z,15.30
2019-04-25T06:31:44.794Z,15.40
2019-04-25T06:32:48.456Z,15.50
2019-04-25T06:33:53.818Z,15.58
2019-04-25T06:34:57.981Z,15.68
2019-04-25T06:36:01.563Z,15.81
2019-04-25T06:37:06.198Z,15.84
2019-04-25T06:38:10.023Z,15.92
2019-04-25T06:39:14.189Z,16.07
2019-04-25T06:40:19.686Z,16.14
2019-04-25T06:41:25.854Z,16.10
2019-04-25T06:42:29.559Z,16.20
2019-04-25T06:43:34.239Z,16.37
2019-04-25T06:44:45.559Z,16.52
2019-04-25T06:45:55.241Z,16.59
2019-04-25T06:47:00.698Z,16.65
2019-04-25T06:48:21.273Z,16.69
2019-04-25T06:49:27.770Z,16.76
2019-04-25T06:50:31.517Z,16.77
2019-04-25T06:51:51.950Z,16.80
2019-04-25T06:52:55.616Z,16.93
2019-04-25T06:53:59.253Z,17.01
2019-04-25T06:55:03.392Z,17.14
2019-04-25T06:56:07.111Z,17.20
2019-04-25T06:57:10.799Z,17.42
2019-04-25T06:58:14.735Z,17.59
2019-04-25T06:59:18.458Z,17.80
2019-04-25T07:00:24.989Z,17.96
2019-04-25T07:01:28.933Z,18.13
2019-04-25T07:02:35.050Z,18.33
2019-04-25T07:03:38.658Z,18.37
2019-04-25T07:04:43.484Z,18.21
2019-04-25T07:05:47.691Z,18.24
2019-04-25T07:06:51.335Z,18.47
2019-04-25T07:07:55.009Z,18.65
2019-04-25T07:08:58.599Z,18.68
2019-04-25T07:10:03.615Z,18.85
2019-04-25T07:11:07.461Z,18.96
2019-04-25T07:12:11.118Z,18.97
2019-04-25T07:13:15.008Z,19.10
2019-04-25T07:14:18.640Z,19.35
2019-04-25T07:15:24.720Z,19.61
2019-04-25T07:16:27.974Z,19.85
2019-04-25T07:17:31.599Z,20.16
2019-04-25T07:18:37.086Z,20.31
2019-04-25T07:19:40.638Z,20.42
2019-04-25T07:20:45.354Z,20.60
2019-04-25T07:21:49.097Z,20.79
2019-04-25T07:22:53.734Z,21.02
2019-04-25T07:23:57.492Z,21.16
2019-04-25T07:25:01.148Z,21.35
2019-04-25T07:26:06.640Z,21.41
2019-04-25T07:27:28.414Z,21.26
2019-04-25T07:28:36.940Z,21.31
2019-04-25T07:29:43.343Z,21.47
2019-04-25T07:31:00.684Z,21.70
2019-04-25T07:32:12.226Z,21.80
2019-04-25T07:33:29.893Z,21.77
2019-04-25T07:34:34.148Z,21.86
2019-04-25T07:35:38.777Z,21.83
2019-04-25T07:36:42.430Z,21.97
2019-04-25T07:37:46.060Z,22.02
2019-04-25T07:38:49.722Z,21.68
2019-04-25T07:39:54.214Z,21.70
2019-04-25T07:40:57.970Z,21.78
2019-04-25T07:42:01.596Z,21.90
2019-04-25T07:43:05.230Z,22.08
2019-04-25T07:44:08.876Z,22.07
2019-04-25T07:45:14.080Z,22.14
2019-04-25T07:46:17.873Z,22.37
2019-04-25T07:47:21.558Z,22.53
2019-04-25T07:48:26.680Z,22.79
2019-04-25T07:49:30.544Z,22.97
2019-04-25T07:50:35.356Z,22.95
2019-04-25T07:51:39.152Z,23.02
2019-04-25T07:52:44.220Z,23.01
2019-04-25T07:53:48.113Z,22.87
2019-04-25T07:54:51.739Z,23.03
2019-04-25T07:55:55.370Z,23.23
2019-04-25T07:56:59.062Z,23.52
2019-04-25T07:58:03.180Z,23.47
2019-04-25T07:59:07.503Z,23.60
2019-04-25T08:00:14.693Z,23.75
2019-04-25T08:01:18.341Z,23.84
2019-04-25T08:02:23.318Z,24.09
2019-04-25T08:03:28.390Z,24.35
2019-04-25T08:04:32.345Z,24.50
2019-04-25T08:05:36.687Z,24.66
2019-04-25T08:06:41.832Z,24.86
2019-04-25T08:07:45.836Z,25.08
2019-04-25T08:08:49.486Z,25.47
2019-04-25T08:09:54.212Z,25.70
2019-04-25T08:11:04.067Z,26.03
2019-04-25T08:12:07.845Z,26.18
2019-04-25T08:13:11.478Z,26.44
2019-04-25T08:14:24.242Z,26.73
2019-04-25T08:15:29.972Z,26.90
2019-04-25T08:16:35.712Z,27.13
2019-04-25T08:17:47.053Z,27.37
2019-04-25T08:18:51.043Z,27.55
2019-04-25T08:19:54.647Z,27.78
2019-04-25T08:20:59.081Z,28.09
2019-04-25T08:22:03.658Z,27.90
2019-04-25T08:23:07.385Z,28.04
2019-04-25T08:24:11.062Z,28.30
2019-04-25T08:25:15.212Z,28.70
2019-04-25T08:26:18.849Z,29.02
2019-04-25T08:27:23.183Z,29.21
2019-04-25T08:28:26.911Z,29.19
2019-04-25T08:29:31.662Z,29.20
2019-04-25T08:30:36.668Z,29.22
2019-04-25T08:31:40.753Z,29.45
2019-04-25T08:32:44.736Z,29.74
2019-04-25T08:33:48.750Z,29.93
2019-04-25T08:34:54.126Z,30.18
2019-04-25T08:36:06.644Z,30.36
2019-04-25T08:37:04.088Z,30.64
2019-04-25T08:38:07.850Z,30.80
2019-04-25T08:39:14.358Z,30.81
2019-04-25T08:40:18.608Z,30.58
2019-04-25T08:41:23.815Z,29.80
2019-04-25T08:42:27.662Z,30.25
2019-04-25T08:43:32.432Z,30.54
2019-04-25T08:44:36.920Z,30.68
2019-04-25T08:45:40.804Z,30.68
2019-04-25T08:46:48.440Z,30.79
2019-04-25T08:47:49.788Z,30.72
2019-04-25T08:49:11.770Z,30.91
2019-04-25T08:50:28.944Z,31.17
2019-04-25T08:51:31.421Z,31.12
2019-04-25T08:52:36.372Z,31.32
2019-04-25T08:53:41.734Z,31.42
2019-04-25T08:54:49.695Z,31.61
2019-04-25T08:55:58.024Z,31.70
2019-04-25T08:57:04.342Z,31.78
2019-04-25T08:58:15.549Z,32.09
2019-04-25T08:59:44.295Z,32.34
2019-04-25T09:00:59.241Z,32.31
2019-04-25T09:02:16.863Z,32.44
2019-04-25T09:03:24.110Z,32.50
2019-04-25T09:04:36.015Z,32.58
2019-04-25T09:05:44.088Z,32.55
2019-04-25T09:06:47.604Z,32.78
2019-04-25T09:07:51.358Z,32.91
2019-04-25T09:08:55.011Z,32.95
2019-04-25T09:09:59.058Z,33.17
2019-04-25T09:11:03.489Z,33.17
2019-04-25T09:12:07.266Z,33.18
2019-04-25T09:13:10.928Z,33.52
2019-04-25T09:14:14.866Z,33.44
2019-04-25T09:15:18.507Z,33.01
2019-04-25T09:16:23.820Z,32.97
2019-04-25T09:17:27.580Z,32.91
2019-04-25T09:18:31.272Z,32.97
2019-04-25T09:19:36.207Z,32.97
2019-04-25T09:20:42.065Z,32.86
2019-04-25T09:21:49.378Z,32.90
2019-04-25T09:22:51.007Z,32.97
2019-04-25T09:23:54.671Z,32.95
2019-04-25T09:24:58.337Z,32.91
2019-04-25T09:26:02.004Z,32.68
2019-04-25T09:27:05.726Z,32.58
2019-04-25T09:28:09.440Z,32.86
2019-04-25T09:29:17.589Z,32.91
2019-04-25T09:30:18.682Z,33.10
2019-04-25T09:31:23.632Z,33.24
2019-04-25T09:32:27.474Z,33.29
2019-04-25T09:33:31.109Z,33.34
2019-04-25T09:34:35.558Z,33.23
2019-04-25T09:35:39.689Z,33.19
2019-04-25T09:36:43.934Z,33.36
2019-04-25T09:37:48.660Z,33.29
2019-04-25T09:38:53.936Z,33.04
2019-04-25T09:39:59.254Z,33.30
2019-04-25T09:41:03.826Z,33.45
2019-04-25T09:42:07.827Z,33.72
2019-04-25T09:43:11.471Z,33.93
2019-04-25T09:44:16.895Z,34.00
2019-04-25T09:45:33.333Z,33.81
2019-04-25T09:46:37.684Z,33.63
2019-04-25T09:47:43.782Z,33.88
2019-04-25T09:48:55.541Z,33.89
2019-04-25T09:49:59.976Z,33.86
2019-04-25T09:51:05.680Z,33.75
2019-04-25T09:52:11.068Z,33.59
2019-04-25T09:53:23.273Z,33.47
2019-04-25T09:54:40.936Z,33.53
2019-04-25T09:55:55.134Z,33.58
2019-04-25T09:57:16.652Z,34.02
2019-04-25T09:58:38.376Z,34.47
2019-04-25T09:59:43.614Z,34.61
2019-04-25T10:00:49.047Z,34.70
2019-04-25T10:01:52.689Z,34.81
2019-04-25T10:02:56.383Z,34.75
2019-04-25T10:04:00.019Z,34.84
2019-04-25T10:05:04.858Z,35.18
2019-04-25T10:06:08.521Z,35.56
2019-04-25T10:07:12.254Z,35.39
2019-04-25T10:08:15.921Z,35.47
2019-04-25T10:09:19.929Z,35.58
2019-04-25T10:10:24.148Z,35.73
2019-04-25T10:11:28.884Z,36.06
2019-04-25T10:12:34.125Z,36.38
2019-04-25T10:13:38.506Z,36.56
2019-04-25T10:14:56.729Z,36.51
2019-04-25T10:16:06.243Z,35.88
2019-04-25T10:17:09.908Z,36.38
2019-04-25T10:18:14.309Z,36.70
2019-04-25T10:19:18.263Z,36.46
2019-04-25T10:20:23.194Z,36.54
2019-04-25T10:21:27.079Z,36.96
2019-04-25T10:22:30.798Z,37.07
2019-04-25T10:23:34.729Z,37.17
2019-04-25T10:24:39.647Z,37.43
2019-04-25T10:25:45.003Z,37.70
2019-04-25T10:26:48.808Z,37.87
2019-04-25T10:27:53.790Z,37.76
2019-04-25T10:28:57.545Z,37.60
2019-04-25T10:30:14.547Z,37.41
2019-04-25T10:31:06.599Z,37.08
2019-04-25T10:32:11.154Z,35.96
2019-04-25T10:33:17.155Z,35.75
2019-04-25T10:34:20.796Z,35.66
2019-04-25T10:35:24.434Z,35.23
2019-04-25T10:36:28.486Z,35.00
2019-04-25T10:37:33.643Z,34.73
2019-04-25T10:38:38.171Z,34.91
2019-04-25T10:39:43.813Z,34.88
2019-04-25T10:40:48.588Z,35.08
2019-04-25T10:41:54.035Z,35.15
2019-04-25T10:42:58.076Z,34.98
2019-04-25T10:44:03.338Z,34.67
2019-04-25T10:45:20.243Z,34.89
2019-04-25T10:46:14.138Z,34.83
2019-04-25T10:47:18.069Z,34.60
2019-04-25T10:48:21.752Z,34.57
2019-04-25T10:49:25.352Z,34.63
2019-04-25T10:50:28.983Z,34.69
2019-04-25T10:51:34.171Z,34.55
2019-04-25T10:52:38.991Z,34.44
2019-04-25T10:53:45.623Z,34.67
2019-04-25T10:54:48.798Z,35.14
2019-04-25T10:55:52.428Z,35.45
2019-04-25T10:56:56.115Z,35.45
2019-04-25T10:57:59.756Z,35.45
2019-04-25T10:59:04.229Z,35.62
2019-04-25T11:00:18.194Z,35.84
2019-04-25T11:01:21.928Z,35.81
2019-04-25T11:02:25.916Z,36.00
2019-04-25T11:03:41.899Z,35.96
2019-04-25T11:04:48.839Z,35.47
2019-04-25T11:05:55.670Z,35.03
2019-04-25T11:06:58.886Z,35.03
2019-04-25T11:08:04.264Z,34.49
2019-04-25T11:09:13.787Z,34.02
2019-04-25T11:10:18.740Z,33.43
2019-04-25T11:11:24.096Z,33.00
2019-04-25T11:12:27.806Z,32.87
2019-04-25T11:13:33.915Z,32.73
2019-04-25T11:14:37.539Z,32.70
2019-04-25T11:15:41.966Z,32.56
2019-04-25T11:16:46.684Z,32.48
2019-04-25T11:17:50.422Z,32.48
2019-04-25T11:18:54.825Z,32.39
2019-04-25T11:19:58.522Z,32.21
2019-04-25T11:21:05.746Z,32.12
2019-04-25T11:22:07.546Z,32.27
2019-04-25T11:23:11.199Z,32.34
2019-04-25T11:24:14.874Z,32.46
2019-04-25T11:25:18.499Z,32.42
2019-04-25T11:26:22.296Z,32.29
2019-04-25T11:27:26.284Z,31.80
2019-04-25T11:28:29.909Z,31.38
2019-04-25T11:29:34.186Z,31.11
2019-04-25T11:30:38.077Z,30.91
2019-04-25T11:31:44.816Z,31.01
2019-04-25T11:32:48.736Z,30.86
2019-04-25T11:33:54.281Z,30.85
2019-04-25T11:34:57.797Z,30.80
2019-04-25T11:36:01.452Z,30.97
2019-04-25T11:37:05.893Z,31.04
2019-04-25T11:38:11.588Z,30.96
2019-04-25T11:39:23.918Z,31.15
2019-04-25T11:40:32.515Z,31.15
2019-04-25T11:41:36.172Z,31.14
2019-04-25T11:42:39.906Z,30.83
2019-04-25T11:43:46.060Z,30.59
2019-04-25T11:44:49.738Z,30.03
2019-04-25T11:45:55.567Z,29.96
2019-04-25T11:46:59.003Z,29.94
2019-04-25T11:48:02.640Z,29.99
2019-04-25T11:49:06.463Z,30.02
2019-04-25T11:50:10.663Z,30.08
2019-04-25T11:51:14.346Z,30.12
2019-04-25T11:52:27.262Z,30.19
2019-04-25T11:53:25.016Z,29.97
2019-04-25T11:54:28.860Z,30.01
2019-04-25T11:55:32.668Z,30.21
2019-04-25T11:56:36.427Z,30.24
2019-04-25T11:57:40.079Z,30.17
2019-04-25T11:58:45.626Z,30.57
2019-04-25T11:59:50.492Z,30.83
2019-04-25T12:00:57.840Z,30.77
2019-04-25T12:01:59.825Z,30.35
2019-04-25T12:03:03.727Z,30.34
2019-04-25T12:04:07.524Z,30.28
2019-04-25T12:05:11.277Z,30.37
2019-04-25T12:06:14.907Z,30.31
2019-04-25T12:07:18.604Z,30.22
2019-04-25T12:08:22.320Z,30.07
2019-04-25T12:09:26.047Z,29.97
2019-04-25T12:10:30.249Z,29.85
2019-04-25T12:11:34.381Z,29.84
2019-04-25T12:12:38.458Z,29.84
2019-04-25T12:13:44.555Z,29.95
2019-04-25T12:14:47.654Z,29.74
2019-04-25T12:15:51.852Z,29.78
2019-04-25T12:16:56.259Z,30.05
2019-04-25T12:18:00.010Z,30.31
2019-04-25T12:19:04.794Z,30.52
2019-04-25T12:20:08.604Z,30.52
2019-04-25T12:21:13.599Z,30.66
2019-04-25T12:22:17.371Z,30.59
2019-04-25T12:23:21.119Z,30.24
2019-04-25T12:24:24.836Z,30.15
2019-04-25T12:25:28.431Z,29.97
2019-04-25T12:26:33.679Z,30.01
2019-04-25T12:27:37.404Z,30.13
2019-04-25T12:28:41.062Z,30.15
2019-04-25T12:29:45.846Z,29.83
2019-04-25T12:30:49.670Z,29.87
2019-04-25T12:31:54.781Z,29.96
2019-04-25T12:32:59.161Z,30.13
2019-04-25T12:34:03.453Z,30.10
2019-04-25T12:35:07.513Z,29.87
2019-04-25T12:36:11.141Z,29.93
2019-04-25T12:37:14.779Z,29.86
2019-04-25T12:38:20.365Z,29.90
2019-04-25T12:39:24.347Z,29.65
2019-04-25T12:40:28.137Z,29.65
2019-04-25T12:41:31.774Z,29.60
2019-04-25T12:42:35.602Z,29.57
2019-04-25T12:43:40.872Z,29.55
2019-04-25T12:45:01.510Z,29.56
2019-04-25T12:46:09.645Z,29.59
2019-04-25T12:47:14.881Z,29.65
2019-04-25T12:48:18.536Z,29.65
2019-04-25T12:49:23.831Z,29.79
2019-04-25T12:50:27.605Z,29.87
2019-04-25T12:51:31.266Z,29.87
2019-04-25T12:52:34.897Z,29.76
2019-04-25T12:53:38.534Z,29.75
2019-04-25T12:54:44.023Z,29.87
2019-04-25T12:55:48.973Z,29.86
2019-04-25T12:56:53.725Z,29.91
2019-04-25T12:57:58.179Z,29.92
2019-04-25T12:59:02.242Z,30.04
2019-04-25T13:00:06.764Z,30.17
2019-04-25T13:01:10.837Z,30.22
2019-04-25T13:02:14.545Z,30.17
2019-04-25T13:03:18.190Z,30.15
2019-04-25T13:04:21.828Z,30.42
2019-04-25T13:05:25.471Z,30.65
2019-04-25T13:06:29.155Z,30.66
2019-04-25T13:07:32.779Z,30.79
2019-04-25T13:08:36.437Z,30.63
2019-04-25T13:09:40.079Z,30.65
2019-04-25T13:10:44.576Z,30.59
2019-04-25T13:11:48.462Z,30.38
2019-04-25T13:12:55.227Z,30.21
2019-04-25T13:13:57.460Z,30.29
2019-04-25T13:15:01.133Z,30.29
2019-04-25T13:16:06.978Z,30.19
2019-04-25T13:17:10.669Z,29.92
2019-04-25T13:18:14.328Z,29.64
2019-04-25T13:19:23.742Z,29.48
2019-04-25T13:20:23.348Z,29.37
2019-04-25T13:21:26.977Z,29.46
2019-04-25T13:22:30.644Z,29.64
2019-04-25T13:23:34.338Z,29.57
2019-04-25T13:24:37.985Z,29.81
2019-04-25T13:25:41.643Z,29.96
2019-04-25T13:26:46.935Z,29.90
2019-04-25T13:27:58.545Z,29.76
2019-04-25T13:29:21.261Z,29.91
2019-04-25T13:30:43.005Z,30.35
2019-04-25T13:31:48.495Z,30.61
2019-04-25T13:33:08.956Z,30.61
2019-04-25T13:34:14.250Z,30.61
2019-04-25T13:35:23.514Z,30.70
2019-04-25T13:36:27.581Z,30.62
2019-04-25T13:37:31.233Z,30.57
2019-04-25T13:38:34.910Z,30.50
2019-04-25T13:39:39.515Z,30.43
2019-04-25T13:40:43.176Z,30.32
2019-04-25T13:41:46.893Z,30.16
2019-04-25T13:42:50.460Z,29.62
2019-04-25T13:43:54.750Z,29.49
2019-04-25T13:44:58.587Z,29.36
2019-04-25T13:46:02.352Z,29.40
2019-04-25T13:47:06.797Z,29.55
2019-04-25T13:48:10.732Z,29.78
2019-04-25T13:49:14.968Z,30.12
2019-04-25T13:50:18.618Z,30.32
2019-04-25T13:51:24.475Z,30.37
2019-04-25T13:52:28.927Z,30.54
2019-04-25T13:53:33.539Z,30.55
2019-04-25T13:54:37.380Z,30.34
2019-04-25T13:55:40.992Z,30.13
2019-04-25T13:56:44.572Z,29.93
2019-04-25T13:57:48.295Z,29.86
2019-04-25T13:58:51.956Z,29.86
2019-04-25T13:59:55.656Z,29.64
2019-04-25T14:00:59.550Z,29.47
2019-04-25T14:02:04.826Z,29.22
2019-04-25T14:03:08.490Z,29.17